sensor_id;sensor_type;location;lat;lon;timestamp;temperature;humidity
1107;DHT22;540;49.448;8.612;2023-05-10T00:01:53;15.10;99.90
1107;DHT22;540;49.448;8.612;2023-05-10T00:04:21;15.30;99.90
1107;DHT22;540;49.448;8.612;2023-05-10T00:06:49;14.90;99.90
1107;DHT22;540;49.448;8.612;2023-05-10T00:09:17;15.20;99.90
1107;DHT22;540;49.448;8.612;2023-05-10T00:11:46;15.10;99.90
1107;DHT22;540;49.448;8.612;2023-05-10T00:14:14;15.10;99.90
1107;DHT22;540;49.448;8.612;2023-05-10T00:16:42;15.00;99.90
1107;DHT22;540;49.448;8.612;2023-05-10T00:19:09;15.20;99.90
1107;DHT22;540;49.448;8.612;2023-05-10T00:21:37;14.90;99.90
1107;DHT22;540;49.448;8.612;2023-05-10T00:24:05;15.00;99.90
1107;DHT22;540;49.448;8.612;2023-05-10T00:26:33;15.20;99.90
1107;DHT22;540;49.448;8.612;2023-05-10T00:29:02;15.30;99.90
1107;DHT22;540;49.448;8.612;2023-05-10T00:31:30;14.90;99.90
1107;DHT22;540;49.448;8.612;2023-05-10T00:33:58;14.80;99.90
1107;DHT22;540;49.448;8.612;2023-05-10T00:36:25;15.30;99.90
1107;DHT22;540;49.448;8.612;2023-05-10T00:38:54;14.90;99.90
1107;DHT22;540;49.448;8.612;2023-05-10T00:41:21;14.80;99.90
1107;DHT22;540;49.448;8.612;2023-05-10T00:43:49;14.70;99.90
1107;DHT22;540;49.448;8.612;2023-05-10T00:46:18;15.00;99.90
1107;DHT22;540;49.448;8.612;2023-05-10T00:48:46;14.80;99.90
1107;DHT22;540;49.448;8.612;2023-05-10T00:51:14;14.80;99.90
1107;DHT22;540;49.448;8.612;2023-05-10T00:53:42;15.00;99.90
1107;DHT22;540;49.448;8.612;2023-05-10T00:56:11;14.70;99.90
1107;DHT22;540;49.448;8.612;2023-05-10T00:58:39;15.00;99.90
1107;DHT22;540;49.448;8.612;2023-05-10T01:01:08;14.90;99.90
1107;DHT22;540;49.448;8.612;2023-05-10T01:03:39;14.80;99.90
1107;DHT22;540;49.448;8.612;2023-05-10T01:06:07;14.60;99.90
1107;DHT22;540;49.448;8.612;2023-05-10T01:08:36;14.60;99.90
1107;DHT22;540;49.448;8.612;2023-05-10T01:11:04;14.70;99.90
1107;DHT22;540;49.448;8.612;2023-05-10T01:13:34;14.70;99.90
1107;DHT22;540;49.448;8.612;2023-05-10T01:16:04;15.00;99.90
1107;DHT22;540;49.448;8.612;2023-05-10T01:18:34;15.00;99.90
1107;DHT22;540;49.448;8.612;2023-05-10T01:21:15;14.60;99.90
1107;DHT22;540;49.448;8.612;2023-05-10T01:24:09;14.90;99.90
1107;DHT22;540;49.448;8.612;2023-05-10T01:27:02;14.80;99.90
1107;DHT22;540;49.448;8.612;2023-05-10T01:30:06;15.00;99.90
1107;DHT22;540;49.448;8.612;2023-05-10T01:32:55;14.80;99.90
1107;DHT22;540;49.448;8.612;2023-05-10T01:35:35;14.60;99.90
1107;DHT22;540;49.448;8.612;2023-05-10T01:38:11;14.80;99.90
1107;DHT22;540;49.448;8.612;2023-05-10T01:40:48;15.00;99.90
1107;DHT22;540;49.448;8.612;2023-05-10T01:43:24;14.70;99.90
1107;DHT22;540;49.448;8.612;2023-05-10T01:46:00;15.00;99.90
1107;DHT22;540;49.448;8.612;2023-05-10T01:48:38;14.70;99.90
1107;DHT22;540;49.448;8.612;2023-05-10T01:51:08;14.80;99.90
1107;DHT22;540;49.448;8.612;2023-05-10T01:53:37;14.90;99.90
1107;DHT22;540;49.448;8.612;2023-05-10T01:56:07;14.60;99.90
1107;DHT22;540;49.448;8.612;2023-05-10T01:58:39;14.60;99.90
1107;DHT22;540;49.448;8.612;2023-05-10T02:01:10;14.90;99.90
1107;DHT22;540;49.448;8.612;2023-05-10T02:03:41;14.20;99.90
1107;DHT22;540;49.448;8.612;2023-05-10T02:06:10;14.60;99.90
1107;DHT22;540;49.448;8.612;2023-05-10T02:08:41;14.60;99.90
1107;DHT22;540;49.448;8.612;2023-05-10T02:11:11;14.60;99.90
1107;DHT22;540;49.448;8.612;2023-05-10T02:13:41;14.70;99.90
1107;DHT22;540;49.448;8.612;2023-05-10T02:16:10;14.90;99.90
1107;DHT22;540;49.448;8.612;2023-05-10T02:18:41;14.50;99.90
1107;DHT22;540;49.448;8.612;2023-05-10T02:21:10;14.80;99.90
1107;DHT22;540;49.448;8.612;2023-05-10T02:23:39;14.80;99.90
1107;DHT22;540;49.448;8.612;2023-05-10T02:26:07;14.90;99.90
1107;DHT22;540;49.448;8.612;2023-05-10T02:28:35;14.60;99.90
1107;DHT22;540;49.448;8.612;2023-05-10T02:31:05;14.70;99.90
1107;DHT22;540;49.448;8.612;2023-05-10T02:33:34;14.80;99.90
1107;DHT22;540;49.448;8.612;2023-05-10T02:36:04;14.60;99.90
1107;DHT22;540;49.448;8.612;2023-05-10T02:38:33;14.70;99.90
1107;DHT22;540;49.448;8.612;2023-05-10T02:41:03;14.70;99.90
1107;DHT22;540;49.448;8.612;2023-05-10T02:43:33;14.70;99.90
1107;DHT22;540;49.448;8.612;2023-05-10T02:46:01;14.60;99.90
1107;DHT22;540;49.448;8.612;2023-05-10T02:48:29;14.70;99.90
1107;DHT22;540;49.448;8.612;2023-05-10T02:51:03;14.60;99.90
1107;DHT22;540;49.448;8.612;2023-05-10T02:53:34;14.50;99.90
1107;DHT22;540;49.448;8.612;2023-05-10T02:56:05;14.50;99.90
1107;DHT22;540;49.448;8.612;2023-05-10T02:58:34;14.60;99.90
1107;DHT22;540;49.448;8.612;2023-05-10T03:01:02;14.90;99.90
1107;DHT22;540;49.448;8.612;2023-05-10T03:03:30;14.60;99.90
1107;DHT22;540;49.448;8.612;2023-05-10T03:05:58;14.70;99.90
1107;DHT22;540;49.448;8.612;2023-05-10T03:08:26;14.60;99.90
1107;DHT22;540;49.448;8.612;2023-05-10T03:11:07;14.50;99.90
1107;DHT22;540;49.448;8.612;2023-05-10T03:13:44;14.60;99.90
1107;DHT22;540;49.448;8.612;2023-05-10T03:16:15;14.40;99.90
1107;DHT22;540;49.448;8.612;2023-05-10T03:18:48;14.50;99.90
1107;DHT22;540;49.448;8.612;2023-05-10T03:21:18;14.40;99.90
1107;DHT22;540;49.448;8.612;2023-05-10T03:23:54;14.60;99.90
1107;DHT22;540;49.448;8.612;2023-05-10T03:26:28;14.50;99.90
1107;DHT22;540;49.448;8.612;2023-05-10T03:28:57;14.30;99.90
1107;DHT22;540;49.448;8.612;2023-05-10T03:31:26;14.80;99.90
1107;DHT22;540;49.448;8.612;2023-05-10T03:33:54;14.60;99.90
1107;DHT22;540;49.448;8.612;2023-05-10T03:36:22;14.70;99.90
1107;DHT22;540;49.448;8.612;2023-05-10T03:38:49;14.60;99.90
1107;DHT22;540;49.448;8.612;2023-05-10T03:41:17;14.60;99.90
1107;DHT22;540;49.448;8.612;2023-05-10T03:43:46;14.70;99.90
1107;DHT22;540;49.448;8.612;2023-05-10T03:46:14;14.50;99.90
1107;DHT22;540;49.448;8.612;2023-05-10T03:48:42;14.60;99.90
1107;DHT22;540;49.448;8.612;2023-05-10T03:51:10;14.50;99.90
1107;DHT22;540;49.448;8.612;2023-05-10T03:53:39;14.30;99.90
1107;DHT22;540;49.448;8.612;2023-05-10T03:56:06;14.30;99.90
1107;DHT22;540;49.448;8.612;2023-05-10T03:58:34;14.20;99.90
1107;DHT22;540;49.448;8.612;2023-05-10T04:01:03;13.90;99.90
1107;DHT22;540;49.448;8.612;2023-05-10T04:03:31;14.20;99.90
1107;DHT22;540;49.448;8.612;2023-05-10T04:06:00;14.60;99.90
1107;DHT22;540;49.448;8.612;2023-05-10T04:08:28;14.10;99.90
1107;DHT22;540;49.448;8.612;2023-05-10T04:11:05;14.50;99.90
1107;DHT22;540;49.448;8.612;2023-05-10T04:13:33;14.10;99.90
1107;DHT22;540;49.448;8.612;2023-05-10T04:16:02;13.80;99.90
1107;DHT22;540;49.448;8.612;2023-05-10T04:18:30;14.10;99.90
1107;DHT22;540;49.448;8.612;2023-05-10T04:20:58;14.00;99.90
1107;DHT22;540;49.448;8.612;2023-05-10T04:23:26;13.90;99.90
1107;DHT22;540;49.448;8.612;2023-05-10T04:25:59;14.30;99.90
1107;DHT22;540;49.448;8.612;2023-05-10T04:28:27;14.40;99.90
1107;DHT22;540;49.448;8.612;2023-05-10T04:31:00;14.10;99.90
1107;DHT22;540;49.448;8.612;2023-05-10T04:33:30;14.40;99.90
1107;DHT22;540;49.448;8.612;2023-05-10T04:35:58;14.10;99.90
1107;DHT22;540;49.448;8.612;2023-05-10T04:38:26;14.30;99.90
1107;DHT22;540;49.448;8.612;2023-05-10T04:40:53;14.10;99.90
1107;DHT22;540;49.448;8.612;2023-05-10T04:43:21;14.10;99.90
1107;DHT22;540;49.448;8.612;2023-05-10T04:45:49;14.30;99.90
1107;DHT22;540;49.448;8.612;2023-05-10T04:48:17;14.20;99.90
1107;DHT22;540;49.448;8.612;2023-05-10T04:50:46;14.20;99.90
1107;DHT22;540;49.448;8.612;2023-05-10T04:53:14;14.00;99.90
1107;DHT22;540;49.448;8.612;2023-05-10T04:55:42;14.00;99.90
1107;DHT22;540;49.448;8.612;2023-05-10T04:58:10;14.30;99.90
1107;DHT22;540;49.448;8.612;2023-05-10T05:00:37;14.20;99.90
1107;DHT22;540;49.448;8.612;2023-05-10T05:03:05;14.20;99.90
1107;DHT22;540;49.448;8.612;2023-05-10T05:05:33;14.60;99.90
1107;DHT22;540;49.448;8.612;2023-05-10T05:08:03;14.30;99.90
1107;DHT22;540;49.448;8.612;2023-05-10T05:10:31;14.40;99.90
1107;DHT22;540;49.448;8.612;2023-05-10T05:12:58;14.60;99.90
1107;DHT22;540;49.448;8.612;2023-05-10T05:15:26;14.30;99.90
1107;DHT22;540;49.448;8.612;2023-05-10T05:17:54;14.40;99.90
1107;DHT22;540;49.448;8.612;2023-05-10T05:20:22;14.60;99.90
1107;DHT22;540;49.448;8.612;2023-05-10T05:22:50;14.50;99.90
1107;DHT22;540;49.448;8.612;2023-05-10T05:25:19;14.70;99.90
1107;DHT22;540;49.448;8.612;2023-05-10T05:27:47;14.60;99.90
1107;DHT22;540;49.448;8.612;2023-05-10T05:30:15;14.60;99.90
1107;DHT22;540;49.448;8.612;2023-05-10T05:32:43;14.70;99.90
1107;DHT22;540;49.448;8.612;2023-05-10T05:35:11;14.80;99.90
1107;DHT22;540;49.448;8.612;2023-05-10T05:37:39;14.70;99.90
1107;DHT22;540;49.448;8.612;2023-05-10T05:40:08;14.70;99.90
1107;DHT22;540;49.448;8.612;2023-05-10T05:42:37;15.00;99.90
1107;DHT22;540;49.448;8.612;2023-05-10T05:45:06;15.20;99.90
1107;DHT22;540;49.448;8.612;2023-05-10T05:47:35;15.00;99.90
1107;DHT22;540;49.448;8.612;2023-05-10T05:50:03;15.30;99.90
1107;DHT22;540;49.448;8.612;2023-05-10T05:52:31;15.10;99.90
1107;DHT22;540;49.448;8.612;2023-05-10T05:54:59;15.10;99.90
1107;DHT22;540;49.448;8.612;2023-05-10T05:57:27;15.00;99.90
1107;DHT22;540;49.448;8.612;2023-05-10T05:59:56;15.10;99.90
1107;DHT22;540;49.448;8.612;2023-05-10T06:02:24;15.10;99.90
1107;DHT22;540;49.448;8.612;2023-05-10T06:04:51;14.80;99.90
1107;DHT22;540;49.448;8.612;2023-05-10T06:07:19;15.20;99.90
1107;DHT22;540;49.448;8.612;2023-05-10T06:09:48;15.10;99.90
1107;DHT22;540;49.448;8.612;2023-05-10T06:12:15;15.10;99.90
1107;DHT22;540;49.448;8.612;2023-05-10T06:14:43;15.20;99.90
1107;DHT22;540;49.448;8.612;2023-05-10T06:17:12;14.80;99.90
1107;DHT22;540;49.448;8.612;2023-05-10T06:19:40;14.70;99.90
1107;DHT22;540;49.448;8.612;2023-05-10T06:22:08;14.90;99.90
1107;DHT22;540;49.448;8.612;2023-05-10T06:24:36;14.90;99.90
1107;DHT22;540;49.448;8.612;2023-05-10T06:27:04;15.40;99.90
1107;DHT22;540;49.448;8.612;2023-05-10T06:29:31;15.10;99.90
1107;DHT22;540;49.448;8.612;2023-05-10T06:31:59;14.70;99.90
1107;DHT22;540;49.448;8.612;2023-05-10T06:34:29;15.50;99.90
1107;DHT22;540;49.448;8.612;2023-05-10T06:36:57;15.30;99.90
1107;DHT22;540;49.448;8.612;2023-05-10T06:39:24;15.10;99.90
1107;DHT22;540;49.448;8.612;2023-05-10T06:41:52;15.30;99.90
1107;DHT22;540;49.448;8.612;2023-05-10T06:44:20;15.30;99.90
1107;DHT22;540;49.448;8.612;2023-05-10T06:46:48;15.40;99.90
1107;DHT22;540;49.448;8.612;2023-05-10T06:49:16;15.60;99.90
1107;DHT22;540;49.448;8.612;2023-05-10T06:51:45;15.60;99.90
1107;DHT22;540;49.448;8.612;2023-05-10T06:54:13;15.30;99.90
1107;DHT22;540;49.448;8.612;2023-05-10T06:56:41;15.50;99.90
1107;DHT22;540;49.448;8.612;2023-05-10T06:59:09;15.60;99.90
1107;DHT22;540;49.448;8.612;2023-05-10T07:01:36;15.50;99.90
1107;DHT22;540;49.448;8.612;2023-05-10T07:04:04;15.60;99.90
1107;DHT22;540;49.448;8.612;2023-05-10T07:06:33;15.20;99.90
1107;DHT22;540;49.448;8.612;2023-05-10T07:09:03;15.70;99.90
1107;DHT22;540;49.448;8.612;2023-05-10T07:11:31;15.50;99.90
1107;DHT22;540;49.448;8.612;2023-05-10T07:13:59;15.70;99.90
1107;DHT22;540;49.448;8.612;2023-05-10T07:16:27;15.70;99.90
1107;DHT22;540;49.448;8.612;2023-05-10T07:18:55;16.20;99.90
1107;DHT22;540;49.448;8.612;2023-05-10T07:21:22;16.00;99.90
1107;DHT22;540;49.448;8.612;2023-05-10T07:23:51;16.30;99.90
1107;DHT22;540;49.448;8.612;2023-05-10T07:26:20;16.20;99.90
1107;DHT22;540;49.448;8.612;2023-05-10T07:28:48;16.20;99.90
1107;DHT22;540;49.448;8.612;2023-05-10T07:31:16;16.40;99.90
1107;DHT22;540;49.448;8.612;2023-05-10T07:33:44;16.60;99.90
1107;DHT22;540;49.448;8.612;2023-05-10T07:36:12;17.00;99.90
1107;DHT22;540;49.448;8.612;2023-05-10T07:38:40;16.50;99.90
1107;DHT22;540;49.448;8.612;2023-05-10T07:41:07;17.10;99.90
1107;DHT22;540;49.448;8.612;2023-05-10T07:43:36;16.90;99.90
1107;DHT22;540;49.448;8.612;2023-05-10T07:46:04;17.10;99.90
1107;DHT22;540;49.448;8.612;2023-05-10T07:48:32;17.20;99.90
1107;DHT22;540;49.448;8.612;2023-05-10T07:51:00;16.90;99.90
1107;DHT22;540;49.448;8.612;2023-05-10T07:53:28;17.50;99.90
1107;DHT22;540;49.448;8.612;2023-05-10T07:55:58;17.50;99.90
1107;DHT22;540;49.448;8.612;2023-05-10T07:58:26;17.60;99.90
1107;DHT22;540;49.448;8.612;2023-05-10T08:00:56;18.00;99.90
1107;DHT22;540;49.448;8.612;2023-05-10T08:03:26;18.10;99.90
1107;DHT22;540;49.448;8.612;2023-05-10T08:05:55;18.20;99.90
1107;DHT22;540;49.448;8.612;2023-05-10T08:08:26;18.50;99.90
1107;DHT22;540;49.448;8.612;2023-05-10T08:10:55;18.00;99.90
1107;DHT22;540;49.448;8.612;2023-05-10T08:13:25;18.00;99.80
1107;DHT22;540;49.448;8.612;2023-05-10T08:15:57;18.10;99.30
1107;DHT22;540;49.448;8.612;2023-05-10T08:18:27;18.10;98.70
1107;DHT22;540;49.448;8.612;2023-05-10T08:20:57;17.90;98.20
1107;DHT22;540;49.448;8.612;2023-05-10T08:23:27;17.90;98.00
1107;DHT22;540;49.448;8.612;2023-05-10T08:25:57;18.00;98.40
1107;DHT22;540;49.448;8.612;2023-05-10T08:28:26;17.80;97.80
1107;DHT22;540;49.448;8.612;2023-05-10T08:30:57;18.10;97.20
1107;DHT22;540;49.448;8.612;2023-05-10T08:33:27;17.90;97.40
1107;DHT22;540;49.448;8.612;2023-05-10T08:35:57;18.00;97.50
1107;DHT22;540;49.448;8.612;2023-05-10T08:38:27;17.70;97.90
1107;DHT22;540;49.448;8.612;2023-05-10T08:40:57;18.00;99.20
1107;DHT22;540;49.448;8.612;2023-05-10T08:43:29;17.80;98.20
1107;DHT22;540;49.448;8.612;2023-05-10T08:46:01;18.00;97.20
1107;DHT22;540;49.448;8.612;2023-05-10T08:48:34;17.90;97.30
1107;DHT22;540;49.448;8.612;2023-05-10T08:51:04;17.80;98.00
1107;DHT22;540;49.448;8.612;2023-05-10T08:53:36;17.60;97.60
1107;DHT22;540;49.448;8.612;2023-05-10T08:56:08;18.20;97.10
1107;DHT22;540;49.448;8.612;2023-05-10T08:58:38;18.20;96.60
1107;DHT22;540;49.448;8.612;2023-05-10T09:01:07;18.20;95.90
1107;DHT22;540;49.448;8.612;2023-05-10T09:03:38;18.40;96.10
1107;DHT22;540;49.448;8.612;2023-05-10T09:06:06;18.40;94.60
1107;DHT22;540;49.448;8.612;2023-05-10T09:08:34;18.00;95.40
1107;DHT22;540;49.448;8.612;2023-05-10T09:11:04;18.10;96.10
1107;DHT22;540;49.448;8.612;2023-05-10T09:13:32;17.70;96.20
1107;DHT22;540;49.448;8.612;2023-05-10T09:16:01;17.80;97.10
1107;DHT22;540;49.448;8.612;2023-05-10T09:18:48;17.70;96.20
1107;DHT22;540;49.448;8.612;2023-05-10T09:21:16;17.20;96.00
1107;DHT22;540;49.448;8.612;2023-05-10T09:23:44;17.40;97.30
1107;DHT22;540;49.448;8.612;2023-05-10T09:26:14;16.80;97.70
1107;DHT22;540;49.448;8.612;2023-05-10T09:28:52;17.10;99.10
1107;DHT22;540;49.448;8.612;2023-05-10T09:31:20;17.40;98.90
1107;DHT22;540;49.448;8.612;2023-05-10T09:33:49;17.90;97.90
1107;DHT22;540;49.448;8.612;2023-05-10T09:36:18;17.90;96.40
1107;DHT22;540;49.448;8.612;2023-05-10T09:38:46;17.90;95.20
1107;DHT22;540;49.448;8.612;2023-05-10T09:41:16;18.00;94.90
1107;DHT22;540;49.448;8.612;2023-05-10T09:43:44;17.90;94.80
1107;DHT22;540;49.448;8.612;2023-05-10T09:46:12;18.10;95.40
1107;DHT22;540;49.448;8.612;2023-05-10T09:48:43;18.00;94.40
1107;DHT22;540;49.448;8.612;2023-05-10T09:51:18;17.60;94.50
1107;DHT22;540;49.448;8.612;2023-05-10T09:53:46;17.90;94.80
1107;DHT22;540;49.448;8.612;2023-05-10T09:56:34;17.60;94.60
1107;DHT22;540;49.448;8.612;2023-05-10T09:59:04;17.70;95.10
1107;DHT22;540;49.448;8.612;2023-05-10T10:01:33;17.90;95.50
1107;DHT22;540;49.448;8.612;2023-05-10T10:04:03;18.20;95.50
1107;DHT22;540;49.448;8.612;2023-05-10T10:06:36;17.90;95.90
1107;DHT22;540;49.448;8.612;2023-05-10T10:09:06;17.80;95.70
1107;DHT22;540;49.448;8.612;2023-05-10T10:11:35;17.80;95.50
1107;DHT22;540;49.448;8.612;2023-05-10T10:14:02;17.80;95.10
1107;DHT22;540;49.448;8.612;2023-05-10T10:16:31;18.20;93.60
1107;DHT22;540;49.448;8.612;2023-05-10T10:18:59;18.40;93.40
1107;DHT22;540;49.448;8.612;2023-05-10T10:21:28;18.50;92.50
1107;DHT22;540;49.448;8.612;2023-05-10T10:23:57;18.70;92.60
1107;DHT22;540;49.448;8.612;2023-05-10T10:26:25;18.60;91.80
1107;DHT22;540;49.448;8.612;2023-05-10T10:29:04;18.60;92.30
1107;DHT22;540;49.448;8.612;2023-05-10T10:31:40;18.50;91.20
1107;DHT22;540;49.448;8.612;2023-05-10T10:34:09;18.10;92.20
1107;DHT22;540;49.448;8.612;2023-05-10T10:36:40;17.90;93.70
1107;DHT22;540;49.448;8.612;2023-05-10T10:39:11;17.50;92.00
1107;DHT22;540;49.448;8.612;2023-05-10T10:41:50;17.50;92.10
1107;DHT22;540;49.448;8.612;2023-05-10T10:44:36;17.50;92.10
1107;DHT22;540;49.448;8.612;2023-05-10T10:50:05;17.90;92.10
1107;DHT22;540;49.448;8.612;2023-05-10T10:52:35;17.90;91.40
1107;DHT22;540;49.448;8.612;2023-05-10T10:55:06;18.40;90.70
1107;DHT22;540;49.448;8.612;2023-05-10T10:57:44;18.50;88.70
1107;DHT22;540;49.448;8.612;2023-05-10T11:00:24;18.50;87.20
1107;DHT22;540;49.448;8.612;2023-05-10T11:02:53;19.10;83.20
1107;DHT22;540;49.448;8.612;2023-05-10T11:05:35;19.30;77.00
1107;DHT22;540;49.448;8.612;2023-05-10T11:08:09;19.70;76.80
1107;DHT22;540;49.448;8.612;2023-05-10T11:10:38;20.00;75.30
1107;DHT22;540;49.448;8.612;2023-05-10T11:13:08;20.00;75.00
1107;DHT22;540;49.448;8.612;2023-05-10T11:15:38;20.10;74.00
1107;DHT22;540;49.448;8.612;2023-05-10T11:18:18;20.50;73.10
1107;DHT22;540;49.448;8.612;2023-05-10T11:20:50;21.10;72.50
1107;DHT22;540;49.448;8.612;2023-05-10T11:23:18;22.00;69.30
1107;DHT22;540;49.448;8.612;2023-05-10T11:25:49;22.40;65.50
1107;DHT22;540;49.448;8.612;2023-05-10T11:28:17;22.50;63.80
1107;DHT22;540;49.448;8.612;2023-05-10T11:30:46;22.50;65.80
1107;DHT22;540;49.448;8.612;2023-05-10T11:33:17;22.30;63.40
1107;DHT22;540;49.448;8.612;2023-05-10T11:35:46;21.80;62.10
1107;DHT22;540;49.448;8.612;2023-05-10T11:38:14;21.60;63.00
1107;DHT22;540;49.448;8.612;2023-05-10T11:40:42;21.70;63.50
1107;DHT22;540;49.448;8.612;2023-05-10T11:43:12;21.40;61.60
1107;DHT22;540;49.448;8.612;2023-05-10T11:45:41;21.20;63.00
1107;DHT22;540;49.448;8.612;2023-05-10T11:48:09;20.80;63.60
1107;DHT22;540;49.448;8.612;2023-05-10T11:50:37;20.60;63.30
1107;DHT22;540;49.448;8.612;2023-05-10T11:53:04;20.30;63.20
1107;DHT22;540;49.448;8.612;2023-05-10T11:55:33;20.70;65.30
1107;DHT22;540;49.448;8.612;2023-05-10T11:58:01;20.80;62.30
1107;DHT22;540;49.448;8.612;2023-05-10T12:00:31;20.80;63.90
1107;DHT22;540;49.448;8.612;2023-05-10T12:03:00;21.10;63.70
1107;DHT22;540;49.448;8.612;2023-05-10T12:05:32;20.90;63.20
1107;DHT22;540;49.448;8.612;2023-05-10T12:08:13;20.70;61.70
1107;DHT22;540;49.448;8.612;2023-05-10T12:10:41;21.20;61.70
1107;DHT22;540;49.448;8.612;2023-05-10T12:13:12;21.60;61.20
1107;DHT22;540;49.448;8.612;2023-05-10T12:15:43;21.50;62.20
1107;DHT22;540;49.448;8.612;2023-05-10T12:18:11;21.30;61.90
1107;DHT22;540;49.448;8.612;2023-05-10T12:20:40;21.30;62.90
1107;DHT22;540;49.448;8.612;2023-05-10T12:23:09;21.80;62.30
1107;DHT22;540;49.448;8.612;2023-05-10T12:25:37;21.70;60.20
1107;DHT22;540;49.448;8.612;2023-05-10T12:28:07;21.50;61.80
1107;DHT22;540;49.448;8.612;2023-05-10T12:30:36;21.20;63.20
1107;DHT22;540;49.448;8.612;2023-05-10T12:33:09;20.30;64.90
1107;DHT22;540;49.448;8.612;2023-05-10T12:35:44;19.90;67.40
1107;DHT22;540;49.448;8.612;2023-05-10T12:38:29;20.10;69.00
1107;DHT22;540;49.448;8.612;2023-05-10T12:40:58;19.90;69.70
1107;DHT22;540;49.448;8.612;2023-05-10T12:43:27;20.20;69.50
1107;DHT22;540;49.448;8.612;2023-05-10T12:45:55;20.40;68.20
1107;DHT22;540;49.448;8.612;2023-05-10T12:48:24;20.50;67.60
1107;DHT22;540;49.448;8.612;2023-05-10T12:50:52;20.10;68.10
1107;DHT22;540;49.448;8.612;2023-05-10T12:53:19;20.10;69.00
1107;DHT22;540;49.448;8.612;2023-05-10T12:55:47;20.00;69.30
1107;DHT22;540;49.448;8.612;2023-05-10T12:58:15;20.00;68.40
1107;DHT22;540;49.448;8.612;2023-05-10T13:01:00;19.80;67.40
1107;DHT22;540;49.448;8.612;2023-05-10T13:03:29;20.00;66.70
1107;DHT22;540;49.448;8.612;2023-05-10T13:05:57;19.90;66.90
1107;DHT22;540;49.448;8.612;2023-05-10T13:08:25;20.10;66.90
1107;DHT22;540;49.448;8.612;2023-05-10T13:10:54;20.40;67.30
1107;DHT22;540;49.448;8.612;2023-05-10T13:13:21;20.90;65.30
1107;DHT22;540;49.448;8.612;2023-05-10T13:15:49;20.70;65.20
1107;DHT22;540;49.448;8.612;2023-05-10T13:18:17;20.60;64.20
1107;DHT22;540;49.448;8.612;2023-05-10T13:20:46;20.70;64.00
1107;DHT22;540;49.448;8.612;2023-05-10T13:23:16;20.60;60.90
1107;DHT22;540;49.448;8.612;2023-05-10T13:25:43;20.60;60.20
1107;DHT22;540;49.448;8.612;2023-05-10T13:28:11;20.40;60.70
1107;DHT22;540;49.448;8.612;2023-05-10T13:30:39;20.30;61.00
1107;DHT22;540;49.448;8.612;2023-05-10T13:33:07;20.20;59.80
1107;DHT22;540;49.448;8.612;2023-05-10T13:35:35;20.40;60.40
1107;DHT22;540;49.448;8.612;2023-05-10T13:38:04;20.60;59.80
1107;DHT22;540;49.448;8.612;2023-05-10T13:40:34;20.50;59.30
1107;DHT22;540;49.448;8.612;2023-05-10T13:43:02;20.40;58.30
1107;DHT22;540;49.448;8.612;2023-05-10T13:45:30;20.20;59.20
1107;DHT22;540;49.448;8.612;2023-05-10T13:47:58;19.80;58.50
1107;DHT22;540;49.448;8.612;2023-05-10T13:50:25;20.40;59.70
1107;DHT22;540;49.448;8.612;2023-05-10T13:52:53;20.50;60.00
1107;DHT22;540;49.448;8.612;2023-05-10T13:55:23;20.30;60.40
1107;DHT22;540;49.448;8.612;2023-05-10T13:57:51;20.20;60.40
1107;DHT22;540;49.448;8.612;2023-05-10T14:00:19;20.30;59.80
1107;DHT22;540;49.448;8.612;2023-05-10T14:02:46;20.30;59.40
1107;DHT22;540;49.448;8.612;2023-05-10T14:05:15;20.70;59.30
1107;DHT22;540;49.448;8.612;2023-05-10T14:07:45;20.60;58.20
1107;DHT22;540;49.448;8.612;2023-05-10T14:10:13;20.00;57.50
1107;DHT22;540;49.448;8.612;2023-05-10T14:12:42;20.70;58.00
1107;DHT22;540;49.448;8.612;2023-05-10T14:15:10;20.70;58.10
1107;DHT22;540;49.448;8.612;2023-05-10T14:17:38;20.80;57.30
1107;DHT22;540;49.448;8.612;2023-05-10T14:20:07;20.70;57.40
1107;DHT22;540;49.448;8.612;2023-05-10T14:22:35;20.40;56.00
1107;DHT22;540;49.448;8.612;2023-05-10T14:25:03;20.30;56.40
1107;DHT22;540;49.448;8.612;2023-05-10T14:27:31;20.40;57.40
1107;DHT22;540;49.448;8.612;2023-05-10T14:30:01;20.90;57.40
1107;DHT22;540;49.448;8.612;2023-05-10T14:32:28;20.80;56.10
1107;DHT22;540;49.448;8.612;2023-05-10T14:34:58;20.70;56.20
1107;DHT22;540;49.448;8.612;2023-05-10T14:37:26;20.70;56.20
1107;DHT22;540;49.448;8.612;2023-05-10T14:39:54;20.90;55.90
1107;DHT22;540;49.448;8.612;2023-05-10T14:42:22;20.70;54.80
1107;DHT22;540;49.448;8.612;2023-05-10T14:44:49;20.90;55.20
1107;DHT22;540;49.448;8.612;2023-05-10T14:47:19;20.90;55.40
1107;DHT22;540;49.448;8.612;2023-05-10T14:49:46;21.00;55.20
1107;DHT22;540;49.448;8.612;2023-05-10T14:52:14;20.90;54.60
1107;DHT22;540;49.448;8.612;2023-05-10T14:54:43;20.70;53.90
1107;DHT22;540;49.448;8.612;2023-05-10T14:57:10;20.70;53.90
1107;DHT22;540;49.448;8.612;2023-05-10T14:59:39;20.40;54.00
1107;DHT22;540;49.448;8.612;2023-05-10T15:02:07;20.20;53.60
1107;DHT22;540;49.448;8.612;2023-05-10T15:04:38;20.00;53.50
1107;DHT22;540;49.448;8.612;2023-05-10T15:07:06;19.80;53.20
1107;DHT22;540;49.448;8.612;2023-05-10T15:09:34;19.80;53.40
1107;DHT22;540;49.448;8.612;2023-05-10T15:12:02;19.60;54.70
1107;DHT22;540;49.448;8.612;2023-05-10T15:14:30;19.90;54.30
1107;DHT22;540;49.448;8.612;2023-05-10T15:16:57;20.20;54.10
1107;DHT22;540;49.448;8.612;2023-05-10T15:19:25;20.10;54.80
1107;DHT22;540;49.448;8.612;2023-05-10T15:21:54;19.90;55.70
1107;DHT22;540;49.448;8.612;2023-05-10T15:24:22;19.40;54.50
1107;DHT22;540;49.448;8.612;2023-05-10T15:26:50;19.70;55.00
1107;DHT22;540;49.448;8.612;2023-05-10T15:29:17;19.70;54.50
1107;DHT22;540;49.448;8.612;2023-05-10T15:31:47;19.90;54.20
1107;DHT22;540;49.448;8.612;2023-05-10T15:34:16;19.70;54.40
1107;DHT22;540;49.448;8.612;2023-05-10T15:36:44;19.80;55.70
1107;DHT22;540;49.448;8.612;2023-05-10T15:39:13;19.80;55.30
1107;DHT22;540;49.448;8.612;2023-05-10T15:41:41;19.80;55.30
1107;DHT22;540;49.448;8.612;2023-05-10T15:44:08;19.80;53.90
1107;DHT22;540;49.448;8.612;2023-05-10T15:46:37;20.00;53.70
1107;DHT22;540;49.448;8.612;2023-05-10T15:49:05;20.20;54.60
1107;DHT22;540;49.448;8.612;2023-05-10T15:51:33;20.20;53.90
1107;DHT22;540;49.448;8.612;2023-05-10T15:54:02;19.90;53.80
1107;DHT22;540;49.448;8.612;2023-05-10T15:56:35;20.20;53.50
1107;DHT22;540;49.448;8.612;2023-05-10T15:59:04;20.20;53.20
1107;DHT22;540;49.448;8.612;2023-05-10T16:01:34;20.20;52.10
1107;DHT22;540;49.448;8.612;2023-05-10T16:04:02;20.60;53.30
1107;DHT22;540;49.448;8.612;2023-05-10T16:06:30;20.60;53.10
1107;DHT22;540;49.448;8.612;2023-05-10T16:08:58;20.40;53.00
1107;DHT22;540;49.448;8.612;2023-05-10T16:11:26;20.00;52.00
1107;DHT22;540;49.448;8.612;2023-05-10T16:13:55;20.20;52.20
1107;DHT22;540;49.448;8.612;2023-05-10T16:16:23;20.50;52.90
1107;DHT22;540;49.448;8.612;2023-05-10T16:18:51;20.60;52.20
1107;DHT22;540;49.448;8.612;2023-05-10T16:21:19;19.80;51.50
1107;DHT22;540;49.448;8.612;2023-05-10T16:23:46;20.20;52.00
1107;DHT22;540;49.448;8.612;2023-05-10T16:26:14;20.00;52.30
1107;DHT22;540;49.448;8.612;2023-05-10T16:28:42;19.90;52.60
1107;DHT22;540;49.448;8.612;2023-05-10T16:31:11;19.80;53.30
1107;DHT22;540;49.448;8.612;2023-05-10T16:33:39;19.80;53.70
1107;DHT22;540;49.448;8.612;2023-05-10T16:36:07;20.00;54.70